createdAt,value
2017-08-08T00:01:27.496Z,15.20
2017-08-08T00:03:54.967Z,15.30
2017-08-08T00:06:22.433Z,15.30
2017-08-08T00:08:49.908Z,15.30
2017-08-08T00:11:17.369Z,15.30
2017-08-08T00:13:44.833Z,15.20
2017-08-08T00:16:12.308Z,15.20
2017-08-08T00:18:39.771Z,15.20
2017-08-08T00:21:07.248Z,15.20
2017-08-08T00:23:34.712Z,15.20
2017-08-08T00:26:02.950Z,15.10
2017-08-08T00:28:30.416Z,15.00
2017-08-08T00:30:57.895Z,15.00
2017-08-08T00:33:26.132Z,15.00
2017-08-08T00:35:53.607Z,15.00
2017-08-08T00:38:21.075Z,14.90
2017-08-08T00:40:48.548Z,14.90
2017-08-08T00:43:16.789Z,14.90
2017-08-08T00:45:44.264Z,14.80
2017-08-08T00:48:11.737Z,14.80
2017-08-08T00:50:39.976Z,14.80
2017-08-08T00:53:07.440Z,14.80
2017-08-08T00:55:34.923Z,14.80
2017-08-08T00:58:02.409Z,14.80
2017-08-08T01:00:29.888Z,14.80
2017-08-08T01:02:57.352Z,14.80
2017-08-08T01:05:24.820Z,14.80
2017-08-08T01:07:52.321Z,14.60
2017-08-08T01:10:19.825Z,14.60
2017-08-08T01:12:47.309Z,14.60
2017-08-08T01:15:14.772Z,14.60
2017-08-08T01:17:42.259Z,14.60
2017-08-08T01:20:10.480Z,14.40
2017-08-08T01:22:37.957Z,14.40
2017-08-08T01:25:05.421Z,14.40
2017-08-08T01:27:32.912Z,14.50
2017-08-08T01:30:01.154Z,14.40
2017-08-08T01:32:28.636Z,14.40
2017-08-08T01:34:56.869Z,14.40
2017-08-08T01:37:24.341Z,14.40
2017-08-08T01:39:51.808Z,14.50
2017-08-08T01:42:19.276Z,14.40
2017-08-08T01:44:46.736Z,14.40
2017-08-08T01:47:14.212Z,14.40
2017-08-08T01:49:42.441Z,14.40
2017-08-08T01:52:09.933Z,14.40
2017-08-08T01:54:37.405Z,14.30
2017-08-08T01:57:05.642Z,14.30
2017-08-08T01:59:33.111Z,14.30
2017-08-08T02:02:00.594Z,14.20
2017-08-08T02:04:28.828Z,14.30
2017-08-08T02:06:56.300Z,14.30
2017-08-08T02:09:23.784Z,14.30
2017-08-08T02:11:52.011Z,14.10
2017-08-08T02:14:19.485Z,14.10
2017-08-08T02:16:46.965Z,14.10
2017-08-08T02:19:14.440Z,14.20
2017-08-08T02:21:42.680Z,14.20
2017-08-08T02:24:10.148Z,14.20
2017-08-08T02:26:37.616Z,14.20
2017-08-08T02:29:05.097Z,14.20
2017-08-08T02:31:32.560Z,14.00
2017-08-08T02:34:00.032Z,14.10
2017-08-08T02:36:27.497Z,14.00
2017-08-08T02:38:54.977Z,14.00
2017-08-08T02:41:22.436Z,14.00
2017-08-08T02:43:49.937Z,14.00
2017-08-08T02:46:18.165Z,14.00
2017-08-08T02:48:45.636Z,14.00
2017-08-08T02:51:13.120Z,13.90
2017-08-08T02:53:40.582Z,13.70
2017-08-08T02:56:08.824Z,13.80
2017-08-08T02:58:36.287Z,13.80
2017-08-08T03:01:03.759Z,13.90
2017-08-08T03:03:31.219Z,13.90
2017-08-08T03:05:58.695Z,13.90
2017-08-08T03:08:26.936Z,13.80
2017-08-08T03:10:54.411Z,13.80
2017-08-08T03:13:21.881Z,13.90
2017-08-08T03:15:50.133Z,13.90
2017-08-08T03:18:17.604Z,13.90
2017-08-08T03:20:45.080Z,13.90
2017-08-08T03:23:13.317Z,13.90
2017-08-08T03:25:40.798Z,13.80
2017-08-08T03:28:08.251Z,13.80
2017-08-08T03:30:35.733Z,13.80
2017-08-08T03:33:03.976Z,13.80
2017-08-08T03:35:31.465Z,13.80
2017-08-08T03:37:59.696Z,13.70
2017-08-08T03:40:27.168Z,13.70
2017-08-08T03:42:55.469Z,13.70
2017-08-08T03:45:22.932Z,13.70
2017-08-08T03:47:51.181Z,13.70
2017-08-08T03:50:18.659Z,13.70
2017-08-08T03:52:46.144Z,13.70
2017-08-08T03:55:13.616Z,13.70
2017-08-08T03:57:41.099Z,13.70
2017-08-08T04:00:15.273Z,13.70
2017-08-08T04:02:42.762Z,13.70
2017-08-08T04:05:10.233Z,13.70
2017-08-08T04:07:37.703Z,13.80
2017-08-08T04:10:05.172Z,13.80
2017-08-08T04:12:32.640Z,13.80
2017-08-08T04:15:00.099Z,13.80
2017-08-08T04:17:27.568Z,13.80
2017-08-08T04:19:55.797Z,13.80
2017-08-08T04:22:23.284Z,13.80
2017-08-08T04:24:50.751Z,13.90
2017-08-08T04:27:18.980Z,13.90
2017-08-08T04:29:46.462Z,13.90
2017-08-08T04:32:13.928Z,13.90
2017-08-08T04:34:41.408Z,13.90
2017-08-08T04:37:09.648Z,13.90
2017-08-08T04:39:37.135Z,13.90
2017-08-08T04:42:04.591Z,13.90
2017-08-08T04:44:32.832Z,13.90
2017-08-08T04:47:00.313Z,13.90
2017-08-08T04:49:27.807Z,13.90
2017-08-08T04:51:56.032Z,14.00
2017-08-08T04:54:23.504Z,14.00
2017-08-08T04:56:50.972Z,14.00
2017-08-08T04:59:18.450Z,14.00
2017-08-08T05:01:46.696Z,14.10
2017-08-08T05:04:14.169Z,14.10
2017-08-08T05:06:41.639Z,14.20
2017-08-08T05:09:09.150Z,14.30
2017-08-08T05:11:36.612Z,14.30
2017-08-08T05:14:04.109Z,14.30
2017-08-08T05:16:32.339Z,14.40
2017-08-08T05:18:59.807Z,14.30
2017-08-08T05:21:27.680Z,14.50
2017-08-08T05:23:55.147Z,14.60
2017-08-08T05:26:22.624Z,14.70
2017-08-08T05:28:50.089Z,14.80
2017-08-08T05:31:18.333Z,15.00
2017-08-08T05:33:45.806Z,15.00
2017-08-08T05:36:13.279Z,15.10
2017-08-08T05:38:41.523Z,15.40
2017-08-08T05:41:09.005Z,15.40
2017-08-08T05:43:36.467Z,15.50
2017-08-08T05:46:03.936Z,15.60
2017-08-08T05:48:32.172Z,15.80
2017-08-08T05:50:59.669Z,15.70
2017-08-08T05:53:27.918Z,15.80
2017-08-08T05:55:55.397Z,15.80
2017-08-08T05:58:23.638Z,16.00
2017-08-08T06:00:51.108Z,16.00
2017-08-08T06:03:18.573Z,16.10
2017-08-08T06:05:46.043Z,16.20
2017-08-08T06:08:13.504Z,16.30
2017-08-08T06:10:41.740Z,16.40
2017-08-08T06:13:09.216Z,16.40
2017-08-08T06:15:36.680Z,16.60
2017-08-08T06:18:04.148Z,16.80
2017-08-08T06:20:31.616Z,17.00
2017-08-08T06:22:59.865Z,17.30
2017-08-08T06:25:27.324Z,17.30
2017-08-08T06:27:54.795Z,17.40
2017-08-08T06:30:22.271Z,17.60
2017-08-08T06:32:50.508Z,17.80
2017-08-08T06:35:17.975Z,17.80
2017-08-08T06:37:45.458Z,17.80
2017-08-08T06:40:13.692Z,18.00
2017-08-08T06:42:41.191Z,18.00
2017-08-08T06:45:08.664Z,18.20
2017-08-08T06:47:36.921Z,18.40
2017-08-08T06:50:04.381Z,18.40
2017-08-08T06:52:31.857Z,18.60
2017-08-08T06:55:00.082Z,18.80
2017-08-08T06:57:27.563Z,18.80
2017-08-08T06:59:55.298Z,19.00
2017-08-08T07:02:22.783Z,19.10
2017-08-08T07:04:50.258Z,19.10
2017-08-08T07:07:18.492Z,19.40
2017-08-08T07:09:45.964Z,19.40
2017-08-08T07:12:13.441Z,19.60
2017-08-08T07:14:40.916Z,19.70
2017-08-08T07:17:09.153Z,20.00
2017-08-08T07:19:36.641Z,20.00
2017-08-08T07:22:04.728Z,20.20
2017-08-08T07:24:32.965Z,20.30
2017-08-08T07:27:00.428Z,20.30
2017-08-08T07:29:27.908Z,20.40
2017-08-08T07:31:55.372Z,20.40
2017-08-08T07:34:23.614Z,20.60
2017-08-08T07:36:51.083Z,20.60
2017-08-08T07:39:18.579Z,20.70
2017-08-08T07:41:46.819Z,20.90
2017-08-08T07:44:14.291Z,20.90
2017-08-08T07:46:41.768Z,21.00
2017-08-08T07:49:10.005Z,21.10
2017-08-08T07:51:37.488Z,21.00
2017-08-08T07:54:04.952Z,21.10
2017-08-08T07:56:33.193Z,21.20
2017-08-08T07:59:00.669Z,21.20
2017-08-08T08:01:28.149Z,21.20
2017-08-08T08:03:55.631Z,21.20
2017-08-08T08:06:23.128Z,21.30
2017-08-08T08:08:50.584Z,21.30
2017-08-08T08:11:18.049Z,21.20
2017-08-08T08:13:45.519Z,21.20
2017-08-08T08:16:13.004Z,21.30
2017-08-08T08:18:41.249Z,21.40
2017-08-08T08:21:08.733Z,21.40
2017-08-08T08:23:36.976Z,21.50
2017-08-08T08:26:04.433Z,21.50
2017-08-08T08:28:31.925Z,21.60
2017-08-08T08:30:59.396Z,21.50
2017-08-08T08:33:27.625Z,21.70
2017-08-08T08:35:55.102Z,21.60
2017-08-08T08:38:22.560Z,21.70
2017-08-08T08:40:50.037Z,21.70
2017-08-08T08:43:18.272Z,21.80
2017-08-08T08:45:45.754Z,21.80
2017-08-08T08:48:13.217Z,21.80
2017-08-08T08:50:40.684Z,21.90
2017-08-08T08:53:08.925Z,22.00
2017-08-08T08:55:36.396Z,22.00
2017-08-08T08:58:03.859Z,22.10
2017-08-08T09:00:31.353Z,22.20
2017-08-08T09:02:59.592Z,22.50
2017-08-08T09:05:27.052Z,22.60
2017-08-08T09:07:54.524Z,22.60
2017-08-08T09:10:21.988Z,22.80
2017-08-08T09:12:49.461Z,22.80
2017-08-08T09:15:17.695Z,23.00
2017-08-08T09:17:45.167Z,23.00
2017-08-08T09:20:12.647Z,23.10
2017-08-08T09:22:40.891Z,23.10
2017-08-08T09:25:08.350Z,23.10
2017-08-08T09:27:35.833Z,23.10
2017-08-08T09:30:03.298Z,23.10
2017-08-08T09:32:30.785Z,23.00
2017-08-08T09:34:58.267Z,23.00
2017-08-08T09:37:25.776Z,23.00
2017-08-08T09:39:54.007Z,23.20
2017-08-08T09:42:21.488Z,23.20
2017-08-08T09:44:48.965Z,23.30
2017-08-08T09:47:16.439Z,23.40
2017-08-08T09:49:44.680Z,23.90
2017-08-08T09:52:12.180Z,23.90
2017-08-08T09:54:39.663Z,24.20
2017-08-08T09:57:07.158Z,24.40
2017-08-08T09:59:34.644Z,24.50
2017-08-08T10:02:02.133Z,24.80
2017-08-08T10:04:29.607Z,25.10
2017-08-08T10:06:57.087Z,25.20
2017-08-08T10:09:24.569Z,25.40
2017-08-08T10:11:52.331Z,25.70
2017-08-08T10:14:19.812Z,25.80
2017-08-08T10:16:47.275Z,26.00
2017-08-08T10:19:14.744Z,26.20
2017-08-08T10:21:42.984Z,26.60
2017-08-08T10:24:10.468Z,26.60
2017-08-08T10:26:37.945Z,26.80
2017-08-08T10:29:06.192Z,27.10
2017-08-08T10:31:33.652Z,27.10
2017-08-08T10:34:01.137Z,27.20
2017-08-08T10:36:29.369Z,27.50
2017-08-08T10:38:56.851Z,27.50
2017-08-08T10:41:24.315Z,27.60
2017-08-08T10:43:51.800Z,27.80
2017-08-08T10:46:19.319Z,27.70
2017-08-08T10:48:46.781Z,27.90
2017-08-08T10:51:14.252Z,27.80
2017-08-08T10:53:41.723Z,27.90
2017-08-08T10:56:09.976Z,28.30
2017-08-08T10:58:37.440Z,28.30
2017-08-08T11:01:04.909Z,28.30
2017-08-08T11:03:33.165Z,28.50
2017-08-08T11:06:00.644Z,28.40
2017-08-08T11:08:28.881Z,28.70
2017-08-08T11:10:56.352Z,28.70
2017-08-08T11:13:23.814Z,28.70
2017-08-08T11:15:51.855Z,28.80
2017-08-08T11:18:19.312Z,28.70
2017-08-08T11:20:46.783Z,28.70
2017-08-08T11:23:14.252Z,28.80
2017-08-08T11:25:41.729Z,28.80
2017-08-08T11:28:09.195Z,28.90
2017-08-08T11:30:36.668Z,28.90
2017-08-08T11:33:04.925Z,28.90
2017-08-08T11:35:32.401Z,28.90
2017-08-08T11:37:59.873Z,28.90
2017-08-08T11:40:27.369Z,29.10
2017-08-08T11:42:54.840Z,29.40
2017-08-08T11:45:22.320Z,29.20
2017-08-08T11:47:49.792Z,29.20
2017-08-08T11:50:18.036Z,29.10
2017-08-08T11:52:45.513Z,29.10
2017-08-08T11:55:12.996Z,29.40
2017-08-08T11:57:41.228Z,29.20
2017-08-08T12:02:46.584Z,29.40
2017-08-08T12:05:14.064Z,29.40
2017-08-08T12:07:41.539Z,29.20
2017-08-08T12:10:09.004Z,29.10
2017-08-08T12:12:37.244Z,28.80
2017-08-08T12:15:05.080Z,28.80
2017-08-08T12:17:32.548Z,28.70
2017-08-08T12:20:00.036Z,28.80
2017-08-08T12:22:27.508Z,28.80
2017-08-08T12:24:55.761Z,28.50
2017-08-08T12:27:23.243Z,28.40
2017-08-08T12:29:50.703Z,28.40
2017-08-08T12:32:18.172Z,28.30
2017-08-08T12:34:46.412Z,28.40
2017-08-08T12:37:13.881Z,28.40
2017-08-08T12:39:41.358Z,28.50
2017-08-08T12:42:09.892Z,28.40
2017-08-08T12:44:37.398Z,28.40
2017-08-08T12:47:04.913Z,28.50
2017-08-08T12:49:32.377Z,28.40
2017-08-08T12:51:59.869Z,28.30
2017-08-08T12:54:27.331Z,28.50
2017-08-08T12:56:55.562Z,28.70
2017-08-08T12:59:23.041Z,28.70
2017-08-08T13:01:50.504Z,28.90
2017-08-08T13:04:17.980Z,29.00
2017-08-08T13:06:45.445Z,29.10
2017-08-08T13:09:13.692Z,29.00
2017-08-08T13:11:41.162Z,28.90
2017-08-08T13:14:08.645Z,29.00
2017-08-08T13:16:36.879Z,28.90
2017-08-08T13:19:04.351Z,28.80
2017-08-08T13:21:31.820Z,28.80
2017-08-08T13:23:59.298Z,28.80
2017-08-08T13:26:27.532Z,28.30
2017-08-08T13:28:55.016Z,28.30
2017-08-08T13:31:22.493Z,28.20
2017-08-08T13:33:50.736Z,27.70
2017-08-08T13:36:18.196Z,27.70
2017-08-08T13:38:45.673Z,27.60
2017-08-08T13:41:13.141Z,27.50
2017-08-08T13:43:41.393Z,27.30
2017-08-08T13:46:08.868Z,27.30
2017-08-08T13:48:36.328Z,27.20
2017-08-08T13:51:04.568Z,27.10
2017-08-08T13:53:32.036Z,27.10
2017-08-08T13:55:59.505Z,27.10
2017-08-08T13:58:26.971Z,27.00
2017-08-08T14:00:54.457Z,26.90
2017-08-08T14:03:22.688Z,26.60
2017-08-08T14:05:50.162Z,26.60
2017-08-08T14:08:17.632Z,26.60
2017-08-08T14:10:45.116Z,26.50
2017-08-08T14:13:12.580Z,26.60
2017-08-08T14:15:40.070Z,26.50
2017-08-08T14:18:07.585Z,26.50
2017-08-08T14:20:35.836Z,26.50
2017-08-08T14:23:03.301Z,26.50
2017-08-08T14:25:30.774Z,26.60
2017-08-08T14:27:59.008Z,26.80
2017-08-08T14:30:26.467Z,26.70
2017-08-08T14:32:53.936Z,26.80
2017-08-08T14:35:21.413Z,26.70
2017-08-08T14:37:48.879Z,26.70
2017-08-08T14:40:17.112Z,26.70
2017-08-08T14:42:44.585Z,26.70
2017-08-08T14:45:12.052Z,26.70
2017-08-08T14:47:39.529Z,26.60
2017-08-08T14:50:07.756Z,26.70
2017-08-08T14:52:35.228Z,26.70
2017-08-08T14:55:02.696Z,26.70
2017-08-08T14:57:30.172Z,26.70
2017-08-08T14:59:58.405Z,26.60
2017-08-08T15:02:25.888Z,26.60
2017-08-08T15:04:53.352Z,26.50
2017-08-08T15:07:20.841Z,26.30
2017-08-08T15:09:48.365Z,26.10
2017-08-08T15:12:15.836Z,26.10
2017-08-08T15:14:43.305Z,26.20
2017-08-08T15:17:11.538Z,26.30
2017-08-08T15:19:39.010Z,26.30
2017-08-08T15:22:06.474Z,26.30
2017-08-08T15:24:33.952Z,26.30
2017-08-08T15:27:02.196Z,26.40
2017-08-08T15:29:29.663Z,26.40
2017-08-08T15:31:57.136Z,26.40
2017-08-08T15:34:24.620Z,26.40
2017-08-08T15:36:52.852Z,26.30
2017-08-08T15:39:20.333Z,26.30
2017-08-08T15:41:47.803Z,26.30
2017-08-08T15:44:15.292Z,26.30
2017-08-08T15:46:43.078Z,26.30
2017-08-08T15:49:10.572Z,26.30
2017-08-08T15:51:38.047Z,26.30
2017-08-08T15:54:06.288Z,26.20
2017-08-08T15:56:33.776Z,26.20
2017-08-08T15:59:02.029Z,25.90
2017-08-08T16:01:29.501Z,25.90
2017-08-08T16:03:56.979Z,25.70
2017-08-08T16:06:25.212Z,25.60
2017-08-08T16:08:52.708Z,25.60
2017-08-08T16:11:20.944Z,25.30
2017-08-08T16:13:48.408Z,25.30
2017-08-08T16:16:15.892Z,25.10
2017-08-08T16:18:43.371Z,25.00
2017-08-08T16:21:11.630Z,25.00
2017-08-08T16:23:39.299Z,25.00
2017-08-08T16:26:06.794Z,24.90
2017-08-08T16:28:34.592Z,24.90
2017-08-08T16:31:02.907Z,24.70
2017-08-08T16:33:31.133Z,24.80
2017-08-08T16:35:58.617Z,24.70
2017-08-08T16:38:26.085Z,24.80
2017-08-08T16:40:53.573Z,24.80
2017-08-08T16:43:21.040Z,24.80
2017-08-08T16:48:23.160Z,24.50
2017-08-08T16:50:50.633Z,24.50
2017-08-08T16:53:18.120Z,24.50
2017-08-08T16:55:46.597Z,24.30
2017-08-08T16:58:14.095Z,24.30
2017-08-08T17:00:41.585Z,24.30
2017-08-08T17:03:09.060Z,24.20
2017-08-08T17:05:36.535Z,24.20
2017-08-08T17:08:04.769Z,24.10
2017-08-08T17:10:32.308Z,24.10
2017-08-08T17:12:59.892Z,24.20
2017-08-08T17:15:27.368Z,24.10
2017-08-08T17:17:54.864Z,24.10
2017-08-08T17:20:23.088Z,24.00
2017-08-08T17:22:50.571Z,23.90
2017-08-08T17:25:18.031Z,23.90
2017-08-08T17:27:45.505Z,23.90
2017-08-08T17:30:13.744Z,23.80
2017-08-08T17:32:41.224Z,23.80
2017-08-08T17:35:08.688Z,23.70
2017-08-08T17:37:36.944Z,23.70
2017-08-08T17:40:04.413Z,23.70
2017-08-08T17:42:31.894Z,23.70
2017-08-08T17:45:00.125Z,23.60
2017-08-08T17:47:27.594Z,23.60
2017-08-08T17:49:55.828Z,23.40
2017-08-08T17:52:23.327Z,23.50
2017-08-08T17:54:51.563Z,23.20
2017-08-08T17:57:19.065Z,23.20
2017-08-08T17:59:47.293Z,23.10
2017-08-08T18:02:14.782Z,23.10
2017-08-08T18:04:42.253Z,23.10
2017-08-08T18:07:09.726Z,23.10
2017-08-08T18:09:37.980Z,23.00
2017-08-08T18:12:05.442Z,23.00
2017-08-08T18:14:32.924Z,22.90
2017-08-08T18:17:01.158Z,22.80
2017-08-08T18:19:28.633Z,22.80
2017-08-08T18:21:56.360Z,22.70
2017-08-08T18:24:23.840Z,22.70
2017-08-08T18:26:51.318Z,22.70
2017-08-08T18:29:18.787Z,22.80
2017-08-08T18:31:47.024Z,22.70
2017-08-08T18:34:14.506Z,22.70
2017-08-08T18:36:41.985Z,22.70
2017-08-08T18:39:10.227Z,22.50
2017-08-08T18:41:37.689Z,22.50
2017-08-08T18:44:05.164Z,22.50
2017-08-08T18:46:32.633Z,22.40
2017-08-08T18:49:00.996Z,22.40
2017-08-08T18:51:29.023Z,22.30
2017-08-08T18:53:56.488Z,22.30
2017-08-08T18:56:23.959Z,22.30
2017-08-08T18:58:51.436Z,22.30
2017-08-08T19:01:18.908Z,22.30
2017-08-08T19:03:47.145Z,22.30
2017-08-08T19:06:14.625Z,22.30
2017-08-08T19:08:42.099Z,22.30
2017-08-08T19:11:09.592Z,22.30
2017-08-08T19:13:37.132Z,22.40
2017-08-08T19:16:05.376Z,22.30
2017-08-08T19:18:33.693Z,22.30
2017-08-08T19:21:01.944Z,22.30
2017-08-08T19:23:29.411Z,22.30
2017-08-08T19:25:56.883Z,22.30
2017-08-08T19:28:25.115Z,22.00
2017-08-08T19:30:52.585Z,22.00
2017-08-08T19:33:20.056Z,22.00
2017-08-08T19:35:47.528Z,21.90
2017-08-08T19:38:15.772Z,21.70
2017-08-08T19:40:43.243Z,21.60
2017-08-08T19:43:10.720Z,21.60
2017-08-08T19:45:40.799Z,21.40
2017-08-08T19:48:08.268Z,21.40
2017-08-08T19:50:35.753Z,21.30
2017-08-08T19:53:03.220Z,21.30
2017-08-08T19:55:30.692Z,21.30
2017-08-08T19:57:58.165Z,21.30
2017-08-08T20:00:26.399Z,21.20
2017-08-08T20:02:53.876Z,21.20
2017-08-08T20:05:21.366Z,21.10
2017-08-08T20:07:48.831Z,21.10
2017-08-08T20:10:16.306Z,21.10
2017-08-08T20:12:43.772Z,21.10
2017-08-08T20:15:11.270Z,21.00
2017-08-08T20:17:38.740Z,21.00
2017-08-08T20:20:06.976Z,21.00
2017-08-08T20:22:34.450Z,21.00
2017-08-08T20:25:01.938Z,21.00
2017-08-08T20:27:30.817Z,20.90
2017-08-08T20:29:58.610Z,20.90
2017-08-08T20:32:26.088Z,20.90
2017-08-08T20:34:53.556Z,20.90
2017-08-08T20:37:21.053Z,20.90
2017-08-08T20:39:48.520Z,20.80
2017-08-08T20:42:15.984Z,20.80
2017-08-08T20:44:44.244Z,20.80
2017-08-08T20:47:11.754Z,20.80
2017-08-08T20:49:39.231Z,20.80
2017-08-08T20:52:06.708Z,20.80
2017-08-08T20:54:34.952Z,20.70
2017-08-08T20:57:03.026Z,20.70
2017-08-08T20:59:30.536Z,20.70
2017-08-08T21:01:58.014Z,20.70
2017-08-08T21:04:25.484Z,20.70
2017-08-08T21:06:52.952Z,20.70
2017-08-08T21:09:20.438Z,20.70
2017-08-08T21:11:48.677Z,20.70
2017-08-08T21:14:16.147Z,20.70
2017-08-08T21:16:43.621Z,20.60
2017-08-08T21:19:11.104Z,20.60
2017-08-08T21:21:39.363Z,20.70
2017-08-08T21:24:06.838Z,20.60
2017-08-08T21:26:34.771Z,20.70
2017-08-08T21:29:02.263Z,20.70
2017-08-08T21:31:30.516Z,20.70
2017-08-08T21:33:57.989Z,20.60
2017-08-08T21:36:28.272Z,20.70
2017-08-08T21:38:55.765Z,20.60
2017-08-08T21:41:24.678Z,20.70
2017-08-08T21:43:52.225Z,20.70
2017-08-08T21:46:20.666Z,20.70
2017-08-08T21:48:48.977Z,20.70
2017-08-08T21:51:16.529Z,20.70
2017-08-08T21:53:44.774Z,20.70
2017-08-08T21:56:12.247Z,20.70
2017-08-08T21:58:39.847Z,20.70
2017-08-08T22:01:07.319Z,20.70
2017-08-08T22:03:34.792Z,20.70
2017-08-08T22:06:02.382Z,20.70
2017-08-08T22:08:29.844Z,20.70
2017-08-08T22:10:57.316Z,20.70
2017-08-08T22:13:25.568Z,20.70
2017-08-08T22:15:53.054Z,20.60
2017-08-08T22:18:21.287Z,20.70
2017-08-08T22:20:48.767Z,20.60
2017-08-08T22:23:16.233Z,20.60
2017-08-08T22:25:43.713Z,20.60
2017-08-08T22:28:12.199Z,20.60
2017-08-08T22:30:39.677Z,20.60
2017-08-08T22:33:07.146Z,20.60
2017-08-08T22:35:34.660Z,20.60
2017-08-08T22:38:02.908Z,20.50
2017-08-08T22:40:30.373Z,20.50
2017-08-08T22:42:57.848Z,20.50
2017-08-08T22:45:26.080Z,20.50
2017-08-08T22:47:53.548Z,20.40
2017-08-08T22:50:21.014Z,20.40
2017-08-08T22:52:48.488Z,20.40
2017-08-08T22:55:16.009Z,20.40
2017-08-08T22:57:43.491Z,20.40
2017-08-08T23:00:10.955Z,20.40
2017-08-08T23:02:38.439Z,20.40
2017-08-08T23:05:06.680Z,20.40
2017-08-08T23:07:34.160Z,20.30
2017-08-08T23:10:01.626Z,20.30
2017-08-08T23:12:29.107Z,20.30
2017-08-08T23:14:56.577Z,20.20
2017-08-08T23:17:24.072Z,20.20
2017-08-08T23:19:51.532Z,20.20
2017-08-08T23:22:19.012Z,20.10
2017-08-08T23:24:46.471Z,20.10
2017-08-08T23:27:13.955Z,20.10
2017-08-08T23:29:41.416Z,20.10
2017-08-08T23:32:08.891Z,20.10
2017-08-08T23:34:36.911Z,20.10
2017-08-08T23:37:04.376Z,20.10
2017-08-08T23:39:31.845Z,20.00
2017-08-08T23:41:59.330Z,20.00
2017-08-08T23:44:26.804Z,19.90
2017-08-08T23:46:55.498Z,19.90
2017-08-08T23:49:22.975Z,19.90
2017-08-08T23:51:50.443Z,19.90
2017-08-08T23:54:17.960Z,19.80
2017-08-08T23:56:45.431Z,19.80
2017-08-08T23:59:12.907Z,19.80
